createdAt,value
2018-12-01T00:00:35.200Z,13.90
2018-12-01T00:03:03.848Z,14.07
2018-12-01T00:05:32.493Z,14.07
2018-12-01T00:08:01.027Z,12.70
2018-12-01T00:10:29.559Z,12.17
2018-12-01T00:12:59.100Z,12.17
2018-12-01T00:15:28.796Z,12.97
2018-12-01T00:17:57.655Z,11.60
2018-12-01T00:20:27.669Z,12.63
2018-12-01T00:22:56.557Z,13.07
2018-12-01T00:25:25.144Z,12.97
2018-12-01T00:27:53.918Z,12.03
2018-12-01T00:30:24.062Z,13.23
2018-12-01T00:32:53.531Z,13.43
2018-12-01T00:35:22.208Z,13.33
2018-12-01T00:37:50.907Z,13.30
2018-12-01T00:40:20.509Z,13.37
2018-12-01T00:42:49.358Z,14.13
2018-12-01T00:45:20.057Z,13.33
2018-12-01T00:47:49.688Z,13.17
2018-12-01T00:50:19.347Z,13.73
2018-12-01T00:52:49.371Z,13.87
2018-12-01T00:55:19.735Z,14.33
2018-12-01T00:57:48.746Z,14.33
2018-12-01T01:00:21.848Z,14.20
2018-12-01T01:02:52.155Z,14.50
2018-12-01T01:05:22.739Z,14.33
2018-12-01T01:07:51.315Z,14.20
2018-12-01T01:10:20.702Z,13.83
2018-12-01T01:12:49.439Z,14.73
2018-12-01T01:15:18.074Z,13.90
2018-12-01T01:17:47.076Z,14.73
2018-12-01T01:20:16.707Z,14.63
2018-12-01T01:22:45.965Z,14.67
2018-12-01T01:25:14.974Z,14.97
2018-12-01T01:27:43.681Z,15.33
2018-12-01T01:30:16.503Z,15.37
2018-12-01T01:32:45.400Z,15.67
2018-12-01T01:35:14.369Z,13.67
2018-12-01T01:37:42.943Z,16.00
2018-12-01T01:40:12.712Z,14.70
2018-12-01T01:42:41.336Z,15.97
2018-12-01T01:45:11.481Z,15.43
2018-12-01T01:47:40.105Z,15.60
2018-12-01T01:50:10.435Z,15.27
2018-12-01T01:52:38.964Z,15.97
2018-12-01T01:55:09.158Z,15.77
2018-12-01T01:57:37.809Z,16.80
2018-12-01T02:00:14.559Z,15.07
2018-12-01T02:02:44.208Z,17.47
2018-12-01T02:05:12.738Z,16.47
2018-12-01T02:07:41.360Z,17.37
2018-12-01T02:10:10.715Z,16.93
2018-12-01T02:12:39.517Z,16.43
2018-12-01T02:15:09.737Z,16.93
2018-12-01T02:17:38.531Z,17.50
2018-12-01T02:20:15.783Z,16.70
2018-12-01T02:22:44.629Z,17.07
2018-12-01T02:25:14.612Z,16.73
2018-12-01T02:27:45.572Z,17.20
2018-12-01T02:30:24.865Z,16.83
2018-12-01T02:32:54.026Z,16.00
2018-12-01T02:35:27.722Z,16.43
2018-12-01T02:37:56.453Z,15.43
2018-12-01T02:40:25.676Z,16.30
2018-12-01T02:42:55.204Z,16.20
2018-12-01T02:45:35.008Z,15.30
2018-12-01T02:48:03.895Z,16.03
2018-12-01T02:50:32.552Z,16.67
2018-12-01T02:53:01.529Z,17.17
2018-12-01T02:55:32.345Z,17.00
2018-12-01T02:58:00.861Z,16.67
2018-12-01T03:00:31.014Z,17.37
2018-12-01T03:02:59.585Z,17.77
2018-12-01T03:05:28.122Z,16.70
2018-12-01T03:07:57.151Z,17.67
2018-12-01T03:10:27.529Z,17.73
2018-12-01T03:12:56.028Z,16.57
2018-12-01T03:15:24.824Z,17.87
2018-12-01T03:17:53.324Z,18.70
2018-12-01T03:20:21.860Z,17.87
2018-12-01T03:22:50.342Z,18.07
2018-12-01T03:25:22.451Z,18.03
2018-12-01T03:27:51.817Z,18.83
2018-12-01T03:30:21.309Z,19.90
2018-12-01T03:32:50.677Z,19.10
2018-12-01T03:35:19.753Z,18.53
2018-12-01T03:37:48.995Z,19.20
2018-12-01T03:40:18.425Z,18.87
2018-12-01T03:42:46.970Z,19.30
2018-12-01T03:45:17.416Z,19.23
2018-12-01T03:47:46.010Z,19.07
2018-12-01T03:50:20.390Z,18.10
2018-12-01T03:52:50.664Z,19.00
2018-12-01T03:55:28.803Z,18.97
2018-12-01T03:57:57.308Z,19.03
2018-12-01T04:00:34.094Z,19.23
2018-12-01T04:03:03.258Z,19.57
2018-12-01T04:05:31.972Z,19.80
2018-12-01T04:08:00.468Z,20.07
2018-12-01T04:10:29.162Z,19.30
2018-12-01T04:12:57.903Z,19.47
2018-12-01T04:15:26.980Z,20.97
2018-12-01T04:17:55.468Z,21.27
2018-12-01T04:20:24.053Z,23.10
2018-12-01T04:22:52.582Z,21.63
2018-12-01T04:25:21.051Z,23.17
2018-12-01T04:27:49.615Z,23.00
2018-12-01T04:30:19.312Z,23.13
2018-12-01T04:32:47.910Z,25.90
2018-12-01T04:35:18.091Z,24.53
2018-12-01T04:37:48.763Z,24.67
2018-12-01T04:40:17.410Z,24.13
2018-12-01T04:42:46.828Z,24.03
2018-12-01T04:45:15.490Z,24.27
2018-12-01T04:47:44.134Z,25.13
2018-12-01T04:50:13.676Z,26.53
2018-12-01T04:52:42.467Z,23.67
2018-12-01T04:55:12.154Z,25.10
2018-12-01T04:57:40.679Z,25.57
2018-12-01T05:00:12.464Z,25.20
2018-12-01T05:02:41.012Z,25.70
2018-12-01T05:05:10.856Z,25.27
2018-12-01T05:07:39.410Z,25.43
2018-12-01T05:10:12.954Z,25.97
2018-12-01T05:12:44.864Z,25.83
2018-12-01T05:15:15.790Z,24.57
2018-12-01T05:17:45.464Z,24.30
2018-12-01T05:20:18.325Z,25.13
2018-12-01T05:22:47.123Z,24.70
2018-12-01T05:25:15.695Z,24.47
2018-12-01T05:27:44.227Z,24.70
2018-12-01T05:30:13.059Z,24.50
2018-12-01T05:32:41.689Z,23.50
2018-12-01T05:35:20.055Z,24.00
2018-12-01T05:37:48.982Z,24.07
2018-12-01T05:40:17.601Z,23.10
2018-12-01T05:42:46.200Z,23.97
2018-12-01T05:45:16.094Z,23.33
2018-12-01T05:47:44.584Z,22.63
2018-12-01T05:50:14.052Z,22.83
2018-12-01T05:52:42.526Z,23.40
2018-12-01T05:55:12.779Z,23.40
2018-12-01T05:57:41.308Z,24.30
2018-12-01T06:00:12.161Z,22.97
2018-12-01T06:02:40.777Z,22.87
2018-12-01T06:05:10.200Z,24.50
2018-12-01T06:07:38.771Z,23.73
2018-12-01T06:10:18.135Z,24.03
2018-12-01T06:12:47.193Z,23.50
2018-12-01T06:15:17.198Z,25.40
2018-12-01T06:17:46.623Z,23.47
2018-12-01T06:20:29.809Z,24.57
2018-12-01T06:22:58.408Z,24.73
2018-12-01T06:25:26.941Z,23.93
2018-12-01T06:27:55.563Z,24.93
2018-12-01T06:30:24.140Z,23.87
2018-12-01T06:32:52.963Z,24.73
2018-12-01T06:35:21.486Z,23.07
2018-12-01T06:37:49.956Z,23.57
2018-12-01T06:40:21.781Z,24.07
2018-12-01T06:42:50.302Z,24.00
2018-12-01T06:45:18.905Z,24.97
2018-12-01T06:47:47.457Z,23.37
2018-12-01T06:50:20.574Z,25.47
2018-12-01T06:52:49.330Z,25.17
2018-12-01T06:55:17.788Z,24.20
2018-12-01T06:57:46.950Z,25.23
2018-12-01T07:00:16.654Z,24.73
2018-12-01T07:02:45.940Z,23.60
2018-12-01T07:05:15.189Z,22.17
2018-12-01T07:07:43.768Z,22.23
2018-12-01T07:10:13.237Z,21.53
2018-12-01T07:12:43.171Z,22.20
2018-12-01T07:15:14.816Z,22.47
2018-12-01T07:17:43.412Z,22.00
2018-12-01T07:20:11.974Z,22.07
2018-12-01T07:22:40.532Z,21.43
2018-12-01T07:25:09.077Z,22.10
2018-12-01T07:27:37.685Z,20.40
2018-12-01T07:30:10.443Z,20.47
2018-12-01T07:32:38.973Z,21.20
2018-12-01T07:35:08.303Z,20.63
2018-12-01T07:37:37.036Z,20.90
2018-12-01T07:40:08.702Z,19.40
2018-12-01T07:42:37.212Z,20.17
2018-12-01T07:45:08.906Z,20.10
2018-12-01T07:47:37.490Z,19.03
2018-12-01T07:50:09.006Z,18.93
2018-12-01T07:52:37.549Z,18.90
2018-12-01T07:55:06.503Z,19.40
2018-12-01T07:57:35.062Z,17.20
2018-12-01T08:00:04.209Z,16.57
2018-12-01T08:02:32.682Z,17.97
2018-12-01T08:05:01.177Z,17.90
2018-12-01T08:07:29.787Z,16.87
2018-12-01T08:09:59.458Z,17.00
2018-12-01T08:12:28.131Z,16.70
2018-12-01T08:14:56.971Z,17.10
2018-12-01T08:17:27.190Z,19.37
2018-12-01T08:19:55.834Z,17.60
2018-12-01T08:22:25.664Z,18.67
2018-12-01T08:30:53.044Z,17.97
2018-12-01T08:33:21.587Z,18.07
2018-12-01T08:35:50.670Z,19.77
2018-12-01T08:38:20.254Z,18.60
2018-12-01T08:40:49.405Z,17.73
2018-12-01T08:43:18.290Z,17.73
2018-12-01T08:45:46.861Z,17.83
2018-12-01T08:48:15.540Z,17.80
2018-12-01T08:50:44.817Z,16.30
2018-12-01T08:53:13.708Z,18.60
2018-12-01T08:55:42.198Z,18.00
2018-12-01T08:58:10.764Z,19.50
2018-12-01T09:00:41.225Z,18.80
2018-12-01T09:03:11.975Z,18.83
2018-12-01T09:05:41.213Z,18.20
2018-12-01T09:08:10.245Z,19.03
2018-12-01T09:10:39.051Z,19.00
2018-12-01T09:13:07.621Z,17.70
2018-12-01T09:15:37.056Z,18.70
2018-12-01T09:18:05.593Z,17.63
2018-12-01T09:20:34.964Z,18.77
2018-12-01T09:23:03.525Z,18.17
2018-12-01T09:25:32.254Z,18.50
2018-12-01T09:28:00.843Z,17.70
2018-12-01T09:30:31.695Z,17.23
2018-12-01T09:33:00.692Z,18.53
2018-12-01T09:35:29.236Z,17.87
2018-12-01T09:37:57.793Z,19.53
2018-12-01T09:40:26.832Z,17.23
2018-12-01T09:42:55.391Z,17.57
2018-12-01T09:45:24.891Z,18.03
2018-12-01T09:47:54.918Z,18.10
2018-12-01T09:50:24.643Z,19.00
2018-12-01T09:52:55.456Z,18.37
2018-12-01T09:55:27.630Z,16.53
2018-12-01T09:57:56.461Z,16.37
2018-12-01T10:00:31.062Z,16.53
2018-12-01T10:03:00.606Z,15.80
2018-12-01T10:05:29.479Z,16.87
2018-12-01T10:07:58.043Z,16.23
2018-12-01T10:10:26.603Z,16.10
2018-12-01T10:12:57.002Z,15.70
2018-12-01T10:15:31.064Z,16.37
2018-12-01T10:17:59.671Z,16.57
2018-12-01T10:20:30.414Z,16.23
2018-12-01T10:22:59.588Z,18.17
2018-12-01T10:25:28.309Z,17.37
2018-12-01T10:27:57.020Z,17.50
2018-12-01T10:30:25.995Z,17.63
2018-12-01T10:32:54.641Z,15.67
2018-12-01T10:35:24.245Z,16.00
2018-12-01T10:38:05.569Z,16.17
2018-12-01T10:40:34.492Z,16.57
2018-12-01T10:43:03.023Z,16.23
2018-12-01T10:45:31.607Z,16.30
2018-12-01T10:48:00.066Z,15.67
2018-12-01T10:50:38.735Z,15.57
2018-12-01T10:53:07.757Z,15.50
2018-12-01T10:55:36.339Z,15.60
2018-12-01T10:58:12.975Z,14.70
2018-12-01T11:00:48.025Z,15.50
2018-12-01T11:03:22.018Z,16.03
2018-12-01T11:05:50.622Z,15.53
2018-12-01T11:08:19.260Z,16.93
2018-12-01T11:10:48.247Z,15.47
2018-12-01T11:13:16.858Z,15.50
2018-12-01T11:15:45.525Z,16.27
2018-12-01T11:18:14.186Z,15.60
2018-12-01T11:20:42.762Z,15.50
2018-12-01T11:23:11.260Z,15.10
2018-12-01T11:25:40.338Z,15.53
2018-12-01T11:28:08.833Z,15.37
2018-12-01T11:30:39.530Z,14.30
2018-12-01T11:33:08.052Z,15.17
2018-12-01T11:35:36.743Z,14.60
2018-12-01T11:38:05.723Z,14.60
2018-12-01T11:40:34.223Z,14.13
2018-12-01T11:43:02.749Z,14.43
2018-12-01T11:45:31.520Z,13.87
2018-12-01T11:48:00.227Z,14.40
2018-12-01T11:50:28.819Z,14.80
2018-12-01T11:52:57.436Z,13.77
2018-12-01T11:55:25.925Z,14.33
2018-12-01T11:57:54.902Z,13.57
2018-12-01T12:00:25.871Z,13.90
2018-12-01T12:02:54.584Z,13.47
2018-12-01T12:05:29.672Z,13.87
2018-12-01T12:08:21.117Z,14.70
2018-12-01T12:10:49.660Z,13.60
2018-12-01T12:13:18.350Z,13.47
2018-12-01T12:15:46.916Z,14.13
2018-12-01T12:18:15.552Z,14.03
2018-12-01T12:20:44.141Z,14.67
2018-12-01T12:23:12.599Z,14.27
2018-12-01T12:25:41.138Z,13.80
2018-12-01T12:28:09.662Z,13.43
2018-12-01T12:30:38.323Z,14.90
2018-12-01T12:33:07.587Z,14.20
2018-12-01T12:35:36.131Z,13.40
2018-12-01T12:38:04.792Z,13.40
2018-12-01T12:40:33.360Z,13.80
2018-12-01T12:43:03.226Z,13.17
2018-12-01T12:45:31.752Z,12.93
2018-12-01T12:48:00.275Z,13.93
2018-12-01T12:50:28.789Z,13.80
2018-12-01T12:52:57.495Z,12.77
2018-12-01T12:55:26.821Z,13.87
2018-12-01T12:57:55.328Z,11.97
2018-12-01T13:00:25.726Z,13.00
2018-12-01T13:03:00.219Z,12.87
2018-12-01T13:05:32.500Z,12.77
2018-12-01T13:08:01.060Z,12.77
2018-12-01T13:10:29.579Z,12.23
2018-12-01T13:12:58.156Z,11.37
2018-12-01T13:15:26.600Z,12.33
2018-12-01T13:17:55.127Z,12.27
2018-12-01T13:20:24.499Z,11.63
2018-12-01T13:22:54.489Z,11.67
2018-12-01T13:25:23.010Z,11.10
2018-12-01T13:27:54.945Z,11.10
2018-12-01T13:30:27.607Z,10.43
2018-12-01T13:32:56.293Z,9.57
2018-12-01T13:35:25.025Z,9.73
2018-12-01T13:37:53.528Z,10.00
2018-12-01T13:40:22.070Z,9.37
2018-12-01T13:42:51.008Z,8.97
2018-12-01T13:45:19.490Z,8.73
2018-12-01T13:47:49.905Z,9.57
2018-12-01T13:50:19.461Z,9.10
2018-12-01T13:52:51.367Z,8.97
2018-12-01T13:55:19.861Z,8.80
2018-12-01T13:57:48.398Z,9.00
2018-12-01T14:00:18.211Z,7.97
2018-12-01T14:02:46.773Z,8.37
2018-12-01T14:05:15.696Z,7.90
2018-12-01T14:07:44.244Z,7.83
2018-12-01T14:10:17.567Z,7.23
2018-12-01T14:12:47.398Z,7.60
2018-12-01T14:15:16.905Z,7.03
2018-12-01T14:17:45.529Z,7.50
2018-12-01T14:20:14.913Z,7.33
2018-12-01T14:22:44.664Z,7.77
2018-12-01T14:25:14.038Z,7.47
2018-12-01T14:27:47.573Z,7.07
2018-12-01T14:30:16.895Z,6.80
2018-12-01T14:32:45.845Z,7.00
2018-12-01T14:35:20.574Z,6.87
2018-12-01T14:37:50.745Z,6.37
2018-12-01T14:40:19.303Z,6.80
2018-12-01T14:42:47.798Z,7.40
2018-12-01T14:45:17.296Z,6.60
2018-12-01T14:47:45.986Z,5.67
2018-12-01T14:50:15.351Z,6.47
2018-12-01T14:52:44.581Z,7.57
2018-12-01T14:55:15.147Z,6.47
2018-12-01T14:57:43.670Z,6.87
2018-12-01T15:00:23.778Z,6.27
2018-12-01T15:02:54.085Z,6.50
2018-12-01T15:05:22.786Z,5.37
2018-12-01T15:07:51.686Z,6.87
2018-12-01T15:10:21.288Z,6.27
2018-12-01T15:12:50.375Z,6.60
2018-12-01T15:15:22.442Z,6.37
2018-12-01T15:17:52.196Z,5.80
2018-12-01T15:20:21.739Z,6.07
2018-12-01T15:22:52.432Z,7.53
2018-12-01T15:25:27.851Z,6.00
2018-12-01T15:27:56.573Z,6.80
2018-12-01T15:30:26.955Z,5.90
2018-12-01T15:33:00.175Z,5.77
2018-12-01T15:35:28.988Z,6.23
2018-12-01T15:37:57.737Z,6.47
2018-12-01T15:40:27.111Z,5.80
2018-12-01T15:42:55.673Z,5.83
2018-12-01T15:45:25.282Z,6.47
2018-12-01T15:47:54.206Z,6.37
2018-12-01T15:50:22.603Z,6.37
2018-12-01T15:52:54.478Z,6.43
2018-12-01T15:55:23.944Z,6.53
2018-12-01T15:57:52.646Z,6.30
2018-12-01T16:00:23.102Z,7.17
2018-12-01T16:02:51.679Z,6.97
2018-12-01T16:05:21.021Z,6.67
2018-12-01T16:07:51.176Z,6.23
2018-12-01T16:10:20.865Z,6.80
2018-12-01T16:12:51.218Z,6.53
2018-12-01T16:15:24.310Z,6.70
2018-12-01T16:17:52.840Z,6.43
2018-12-01T16:20:21.387Z,5.90
2018-12-01T16:22:49.935Z,6.03
2018-12-01T16:25:19.675Z,6.27
2018-12-01T16:27:48.544Z,5.90
2018-12-01T16:30:19.693Z,5.97
2018-12-01T16:32:50.658Z,5.90
2018-12-01T16:35:19.205Z,5.73
2018-12-01T16:37:47.701Z,6.37
2018-12-01T16:40:19.138Z,6.27
2018-12-01T16:42:47.633Z,5.93
2018-12-01T16:45:16.680Z,6.00
2018-12-01T16:47:45.411Z,5.80
2018-12-01T16:50:15.122Z,5.87
2018-12-01T16:52:44.467Z,5.63
2018-12-01T16:55:14.377Z,6.07
2018-12-01T16:57:43.217Z,5.67
2018-12-01T17:00:19.316Z,5.57
2018-12-01T17:02:57.485Z,5.73
2018-12-01T17:05:28.925Z,5.67
2018-12-01T17:07:57.575Z,5.20
2018-12-01T17:10:26.093Z,4.90
2018-12-01T17:12:56.669Z,5.00
2018-12-01T17:15:26.146Z,5.00
2018-12-01T17:17:54.836Z,5.30
2018-12-01T17:20:23.314Z,5.20
2018-12-01T17:22:57.542Z,5.37
2018-12-01T17:25:26.572Z,4.70
2018-12-01T17:27:56.463Z,5.30
2018-12-01T17:30:27.108Z,5.70
2018-12-01T17:32:56.551Z,4.97
2018-12-01T17:35:30.096Z,5.00
2018-12-01T17:38:01.410Z,5.53
2018-12-01T17:40:34.523Z,7.10
2018-12-01T17:43:03.294Z,5.03
2018-12-01T17:45:31.812Z,5.43
2018-12-01T17:48:00.404Z,5.10
2018-12-01T17:50:28.927Z,5.23
2018-12-01T17:52:57.709Z,6.07
2018-12-01T17:55:28.670Z,5.60
2018-12-01T17:57:57.433Z,5.33
2018-12-01T18:00:28.160Z,5.23
2018-12-01T18:03:00.008Z,4.80
2018-12-01T18:05:33.662Z,5.20
2018-12-01T18:08:02.389Z,5.87
2018-12-01T18:10:30.891Z,5.13
2018-12-01T18:12:59.417Z,5.37
2018-12-01T18:15:28.039Z,5.13
2018-12-01T18:17:56.667Z,5.67
2018-12-01T18:20:25.251Z,5.67
2018-12-01T18:22:58.824Z,5.30
2018-12-01T18:25:28.740Z,6.10
2018-12-01T18:27:58.233Z,5.40
2018-12-01T18:30:28.496Z,5.13
2018-12-01T18:32:58.622Z,5.60
2018-12-01T18:35:27.110Z,5.23
2018-12-01T18:37:55.736Z,4.47
2018-12-01T18:40:24.355Z,5.40
2018-12-01T18:42:52.936Z,4.73
2018-12-01T18:45:23.362Z,4.50
2018-12-01T18:47:51.891Z,4.83
2018-12-01T18:50:20.943Z,4.63
2018-12-01T18:52:58.059Z,5.03
2018-12-01T18:55:28.029Z,4.60
2018-12-01T18:57:56.770Z,5.37
2018-12-01T19:00:26.983Z,4.57
2018-12-01T19:02:55.635Z,4.67
2018-12-01T19:05:24.102Z,4.87
2018-12-01T19:07:52.660Z,4.73
2018-12-01T19:10:21.253Z,4.50
2018-12-01T19:12:50.052Z,4.70
2018-12-01T19:15:19.098Z,4.63
2018-12-01T19:17:48.709Z,4.50
2018-12-01T19:20:18.023Z,4.40
2018-12-01T19:22:48.441Z,4.40
2018-12-01T19:25:18.395Z,4.50
2018-12-01T19:27:47.461Z,4.40
2018-12-01T19:30:19.820Z,4.23
2018-12-01T19:32:58.032Z,4.90
2018-12-01T19:35:26.577Z,4.77
2018-12-01T19:37:55.605Z,4.47
2018-12-01T19:40:28.909Z,4.67
2018-12-01T19:42:58.058Z,3.90
2018-12-01T19:45:26.580Z,4.23
2018-12-01T19:47:57.314Z,4.50
2018-12-01T19:50:30.391Z,4.50
2018-12-01T19:52:59.057Z,4.30
2018-12-01T19:55:28.453Z,4.33
2018-12-01T19:57:56.983Z,4.63
2018-12-01T20:00:28.477Z,4.43
2018-12-01T20:03:05.189Z,4.57
2018-12-01T20:05:33.772Z,4.77
2018-12-01T20:08:02.256Z,5.20
2018-12-01T20:10:37.584Z,4.80
2018-12-01T20:13:13.762Z,4.87
2018-12-01T20:15:48.438Z,4.67
2018-12-01T20:18:20.564Z,3.97
2018-12-01T20:20:49.104Z,4.10
2018-12-01T20:23:17.709Z,5.43
2018-12-01T20:25:47.875Z,4.53
2018-12-01T20:28:16.472Z,4.47
2018-12-01T20:30:45.573Z,4.43
2018-12-01T20:33:14.426Z,4.73
2018-12-01T20:35:50.782Z,4.27
2018-12-01T20:38:23.812Z,4.50
2018-12-01T20:40:57.478Z,4.60
2018-12-01T20:43:20.976Z,4.70
2018-12-01T20:45:49.589Z,5.30
2018-12-01T20:48:18.477Z,3.97
2018-12-01T20:50:47.235Z,4.30
2018-12-01T20:53:17.416Z,4.27
2018-12-01T20:55:52.455Z,4.03
2018-12-01T20:58:21.196Z,4.50
2018-12-01T21:00:49.677Z,4.43
2018-12-01T21:03:18.831Z,4.20
2018-12-01T21:05:47.370Z,4.33
2018-12-01T21:08:16.057Z,4.20
2018-12-01T21:10:48.706Z,4.30
2018-12-01T21:13:17.475Z,4.17
2018-12-01T21:15:46.009Z,4.30
2018-12-01T21:18:14.559Z,4.37
2018-12-01T21:20:43.141Z,4.03
2018-12-01T21:23:11.622Z,3.83
2018-12-01T21:25:40.191Z,4.23
2018-12-01T21:28:08.650Z,4.23
2018-12-01T21:30:37.554Z,4.20
2018-12-01T21:33:10.548Z,3.67
2018-12-01T21:35:40.055Z,4.20
2018-12-01T21:38:14.659Z,4.10
2018-12-01T21:40:43.515Z,4.53
2018-12-01T21:43:13.115Z,3.90
2018-12-01T21:45:42.265Z,3.63
2018-12-01T21:48:12.439Z,4.00
2018-12-01T21:50:42.114Z,4.70
2018-12-01T21:53:14.633Z,4.00
2018-12-01T21:55:43.344Z,4.37
2018-12-01T21:58:11.851Z,4.27
2018-12-01T22:00:42.815Z,4.57
2018-12-01T22:03:12.786Z,4.47
2018-12-01T22:05:52.896Z,4.17
2018-12-01T22:08:21.393Z,4.27
2018-12-01T22:10:52.696Z,3.77
2018-12-01T22:13:22.126Z,4.67
2018-12-01T22:15:49.818Z,3.93
2018-12-01T22:18:18.600Z,4.00
2018-12-01T22:20:47.085Z,4.27
2018-12-01T22:23:15.548Z,4.10
2018-12-01T22:25:44.009Z,5.30
2018-12-01T22:28:13.481Z,5.27
2018-12-01T22:30:43.126Z,4.23
2018-12-01T22:36:23.897Z,4.23
2018-12-01T22:38:52.402Z,4.60
2018-12-01T22:41:20.945Z,4.63
2018-12-01T22:43:49.437Z,4.70
2018-12-01T22:46:17.954Z,4.73
2018-12-01T22:48:46.414Z,4.03
2018-12-01T22:51:14.951Z,5.10
2018-12-01T22:53:43.481Z,6.03
2018-12-01T22:56:11.998Z,5.40
2018-12-01T22:58:40.477Z,5.43
2018-12-01T23:01:09.033Z,5.83
2018-12-01T23:03:40.465Z,5.47
2018-12-01T23:06:09.020Z,5.47
2018-12-01T23:08:37.608Z,5.47
2018-12-01T23:11:06.713Z,5.50
2018-12-01T23:13:35.339Z,5.83
2018-12-01T23:16:03.889Z,5.30
2018-12-01T23:18:32.339Z,6.27
2018-12-01T23:21:00.811Z,5.73
2018-12-01T23:23:29.513Z,5.93
2018-12-01T23:25:58.037Z,5.63
2018-12-01T23:28:26.672Z,6.77
2018-12-01T23:30:56.000Z,6.20
2018-12-01T23:33:26.088Z,6.50
2018-12-01T23:35:54.748Z,6.37
2018-12-01T23:38:23.277Z,6.57
2018-12-01T23:40:52.081Z,7.07
2018-12-01T23:43:20.695Z,7.43
2018-12-01T23:45:49.250Z,6.53
2018-12-01T23:48:17.792Z,6.63
2018-12-01T23:50:49.133Z,7.27
2018-12-01T23:53:18.200Z,7.43
2018-12-01T23:55:46.795Z,8.00
2018-12-01T23:58:15.469Z,7.73
